sensor_id;sensor_type;location;lat;lon;timestamp;temperature;humidity
17998;DHT22;9124;48.144;17.098;2023-02-18T00:00:34;12.90;99.90
17998;DHT22;9124;48.144;17.098;2023-02-18T00:04:13;12.90;99.90
17998;DHT22;9124;48.144;17.098;2023-02-18T00:07:57;12.80;99.90
17998;DHT22;9124;48.144;17.098;2023-02-18T00:11:34;12.70;99.90
17998;DHT22;9124;48.144;17.098;2023-02-18T00:15:12;12.70;99.90
17998;DHT22;9124;48.144;17.098;2023-02-18T00:18:48;12.70;99.90
17998;DHT22;9124;48.144;17.098;2023-02-18T00:22:25;12.70;99.90
17998;DHT22;9124;48.144;17.098;2023-02-18T00:26:03;12.80;99.90
17998;DHT22;9124;48.144;17.098;2023-02-18T00:29:40;12.80;99.90
17998;DHT22;9124;48.144;17.098;2023-02-18T00:33:16;12.90;99.90
17998;DHT22;9124;48.144;17.098;2023-02-18T00:36:53;12.90;99.90
17998;DHT22;9124;48.144;17.098;2023-02-18T00:40:29;13.00;99.90
17998;DHT22;9124;48.144;17.098;2023-02-18T00:44:06;13.00;99.90
17998;DHT22;9124;48.144;17.098;2023-02-18T00:47:42;13.00;99.90
17998;DHT22;9124;48.144;17.098;2023-02-18T00:51:20;13.10;99.90
17998;DHT22;9124;48.144;17.098;2023-02-18T00:54:57;13.00;99.90
17998;DHT22;9124;48.144;17.098;2023-02-18T00:58:35;13.10;99.90
17998;DHT22;9124;48.144;17.098;2023-02-18T01:02:13;13.00;99.90
17998;DHT22;9124;48.144;17.098;2023-02-18T01:05:50;13.10;99.90
17998;DHT22;9124;48.144;17.098;2023-02-18T01:09:26;13.10;99.90
17998;DHT22;9124;48.144;17.098;2023-02-18T01:13:03;13.10;99.90
17998;DHT22;9124;48.144;17.098;2023-02-18T01:16:39;13.20;99.90
17998;DHT22;9124;48.144;17.098;2023-02-18T01:20:18;13.20;99.90
17998;DHT22;9124;48.144;17.098;2023-02-18T01:23:54;13.20;99.90
17998;DHT22;9124;48.144;17.098;2023-02-18T01:27:31;13.10;99.90
17998;DHT22;9124;48.144;17.098;2023-02-18T01:31:10;13.20;99.90
17998;DHT22;9124;48.144;17.098;2023-02-18T01:34:47;13.20;99.90
17998;DHT22;9124;48.144;17.098;2023-02-18T01:38:23;13.20;99.90
17998;DHT22;9124;48.144;17.098;2023-02-18T01:42:00;13.10;99.90
17998;DHT22;9124;48.144;17.098;2023-02-18T01:49:40;13.00;99.90
17998;DHT22;9124;48.144;17.098;2023-02-18T01:53:23;12.90;99.90
17998;DHT22;9124;48.144;17.098;2023-02-18T01:57:06;12.80;99.90
17998;DHT22;9124;48.144;17.098;2023-02-18T02:00:44;12.70;99.90
17998;DHT22;9124;48.144;17.098;2023-02-18T02:04:21;12.80;99.90
17998;DHT22;9124;48.144;17.098;2023-02-18T02:07:58;12.90;99.90
17998;DHT22;9124;48.144;17.098;2023-02-18T02:15:50;13.00;99.90
17998;DHT22;9124;48.144;17.098;2023-02-18T02:27:24;12.80;99.90
17998;DHT22;9124;48.144;17.098;2023-02-18T02:35:20;12.70;99.90
17998;DHT22;9124;48.144;17.098;2023-02-18T02:47:27;12.60;99.90
17998;DHT22;9124;48.144;17.098;2023-02-18T02:51:20;12.60;99.90
17998;DHT22;9124;48.144;17.098;2023-02-18T02:54:59;12.60;99.90
17998;DHT22;9124;48.144;17.098;2023-02-18T02:58:35;12.60;99.90
17998;DHT22;9124;48.144;17.098;2023-02-18T03:14:28;12.60;99.90
17998;DHT22;9124;48.144;17.098;2023-02-18T03:22:00;12.80;99.90
17998;DHT22;9124;48.144;17.098;2023-02-18T03:25:39;12.90;99.90
17998;DHT22;9124;48.144;17.098;2023-02-18T03:29:18;13.00;99.90
17998;DHT22;9124;48.144;17.098;2023-02-18T03:33:05;12.90;99.90
17998;DHT22;9124;48.144;17.098;2023-02-18T03:36:43;12.80;99.90
17998;DHT22;9124;48.144;17.098;2023-02-18T03:40:19;12.70;99.90
17998;DHT22;9124;48.144;17.098;2023-02-18T03:44:04;12.70;99.90
17998;DHT22;9124;48.144;17.098;2023-02-18T03:47:42;12.80;99.90
17998;DHT22;9124;48.144;17.098;2023-02-18T03:51:19;13.00;99.90
17998;DHT22;9124;48.144;17.098;2023-02-18T03:54:55;13.10;99.90
17998;DHT22;9124;48.144;17.098;2023-02-18T03:58:31;13.10;99.90
17998;DHT22;9124;48.144;17.098;2023-02-18T04:02:07;13.20;99.90
17998;DHT22;9124;48.144;17.098;2023-02-18T04:05:44;13.20;99.90
17998;DHT22;9124;48.144;17.098;2023-02-18T04:09:21;13.20;99.90
17998;DHT22;9124;48.144;17.098;2023-02-18T04:12:57;13.20;99.90
17998;DHT22;9124;48.144;17.098;2023-02-18T04:16:33;13.20;99.90
17998;DHT22;9124;48.144;17.098;2023-02-18T04:20:10;13.20;99.90
17998;DHT22;9124;48.144;17.098;2023-02-18T04:23:47;13.20;99.90
17998;DHT22;9124;48.144;17.098;2023-02-18T04:27:23;13.20;99.90
17998;DHT22;9124;48.144;17.098;2023-02-18T04:31:00;13.10;99.90
17998;DHT22;9124;48.144;17.098;2023-02-18T04:34:36;13.10;99.90
17998;DHT22;9124;48.144;17.098;2023-02-18T04:38:13;13.10;99.90
17998;DHT22;9124;48.144;17.098;2023-02-18T04:41:49;13.10;99.90
17998;DHT22;9124;48.144;17.098;2023-02-18T04:45:27;13.10;99.90
17998;DHT22;9124;48.144;17.098;2023-02-18T04:49:07;13.20;99.90
17998;DHT22;9124;48.144;17.098;2023-02-18T04:52:43;13.20;99.90
17998;DHT22;9124;48.144;17.098;2023-02-18T04:56:19;13.10;99.90
17998;DHT22;9124;48.144;17.098;2023-02-18T04:59:56;13.00;99.90
17998;DHT22;9124;48.144;17.098;2023-02-18T05:03:32;12.90;99.90
17998;DHT22;9124;48.144;17.098;2023-02-18T05:07:10;12.90;99.90
17998;DHT22;9124;48.144;17.098;2023-02-18T05:10:46;12.90;99.90
17998;DHT22;9124;48.144;17.098;2023-02-18T05:14:22;12.80;99.90
17998;DHT22;9124;48.144;17.098;2023-02-18T05:17:58;12.70;99.90
17998;DHT22;9124;48.144;17.098;2023-02-18T05:21:35;12.40;99.90
17998;DHT22;9124;48.144;17.098;2023-02-18T05:25:11;12.20;99.90
17998;DHT22;9124;48.144;17.098;2023-02-18T05:28:48;12.00;99.90
17998;DHT22;9124;48.144;17.098;2023-02-18T05:32:25;11.80;99.90
17998;DHT22;9124;48.144;17.098;2023-02-18T05:36:01;11.80;99.90
17998;DHT22;9124;48.144;17.098;2023-02-18T05:39:37;11.70;99.90
17998;DHT22;9124;48.144;17.098;2023-02-18T05:43:14;11.80;99.90
17998;DHT22;9124;48.144;17.098;2023-02-18T05:46:50;11.80;99.90
17998;DHT22;9124;48.144;17.098;2023-02-18T05:50:27;11.80;99.90
17998;DHT22;9124;48.144;17.098;2023-02-18T05:54:04;11.90;99.90
17998;DHT22;9124;48.144;17.098;2023-02-18T05:57:41;11.90;99.90
17998;DHT22;9124;48.144;17.098;2023-02-18T06:01:17;11.80;99.90
17998;DHT22;9124;48.144;17.098;2023-02-18T06:04:53;11.80;99.90
17998;DHT22;9124;48.144;17.098;2023-02-18T06:08:30;11.70;99.90
17998;DHT22;9124;48.144;17.098;2023-02-18T06:12:06;11.70;99.90
17998;DHT22;9124;48.144;17.098;2023-02-18T06:15:43;11.80;99.90
17998;DHT22;9124;48.144;17.098;2023-02-18T06:19:19;11.70;99.90
17998;DHT22;9124;48.144;17.098;2023-02-18T06:22:55;11.70;99.90
17998;DHT22;9124;48.144;17.098;2023-02-18T06:26:31;11.70;99.90
17998;DHT22;9124;48.144;17.098;2023-02-18T06:30:09;11.70;99.90
17998;DHT22;9124;48.144;17.098;2023-02-18T06:33:45;11.80;99.90
17998;DHT22;9124;48.144;17.098;2023-02-18T06:37:22;11.80;99.90
17998;DHT22;9124;48.144;17.098;2023-02-18T06:40:58;11.80;99.90
17998;DHT22;9124;48.144;17.098;2023-02-18T06:44:34;11.80;99.90
17998;DHT22;9124;48.144;17.098;2023-02-18T06:48:11;11.80;99.90
17998;DHT22;9124;48.144;17.098;2023-02-18T06:51:48;11.80;99.90
17998;DHT22;9124;48.144;17.098;2023-02-18T06:55:24;11.80;99.90
17998;DHT22;9124;48.144;17.098;2023-02-18T06:59:01;11.80;99.90
17998;DHT22;9124;48.144;17.098;2023-02-18T07:02:37;11.80;99.90
17998;DHT22;9124;48.144;17.098;2023-02-18T07:06:14;11.80;99.90
17998;DHT22;9124;48.144;17.098;2023-02-18T07:09:50;11.90;99.90
17998;DHT22;9124;48.144;17.098;2023-02-18T07:13:26;11.90;99.90
17998;DHT22;9124;48.144;17.098;2023-02-18T07:17:03;12.10;99.90
17998;DHT22;9124;48.144;17.098;2023-02-18T07:20:39;12.20;99.90
17998;DHT22;9124;48.144;17.098;2023-02-18T07:24:16;12.30;99.90
17998;DHT22;9124;48.144;17.098;2023-02-18T07:27:52;12.30;99.90
17998;DHT22;9124;48.144;17.098;2023-02-18T07:31:28;12.40;99.90
17998;DHT22;9124;48.144;17.098;2023-02-18T07:35:05;12.40;99.90
17998;DHT22;9124;48.144;17.098;2023-02-18T07:38:42;12.40;99.90
17998;DHT22;9124;48.144;17.098;2023-02-18T07:42:19;12.40;99.90
17998;DHT22;9124;48.144;17.098;2023-02-18T07:45:55;12.30;99.90
17998;DHT22;9124;48.144;17.098;2023-02-18T07:49:32;12.30;99.90
17998;DHT22;9124;48.144;17.098;2023-02-18T07:53:10;12.30;99.90
17998;DHT22;9124;48.144;17.098;2023-02-18T07:56:47;12.40;99.90
17998;DHT22;9124;48.144;17.098;2023-02-18T08:00:24;12.60;99.90
17998;DHT22;9124;48.144;17.098;2023-02-18T08:04:00;12.80;99.90
17998;DHT22;9124;48.144;17.098;2023-02-18T08:07:39;13.10;99.90
17998;DHT22;9124;48.144;17.098;2023-02-18T08:11:15;13.40;99.90
17998;DHT22;9124;48.144;17.098;2023-02-18T08:14:52;13.70;99.90
17998;DHT22;9124;48.144;17.098;2023-02-18T08:18:28;13.70;99.90
17998;DHT22;9124;48.144;17.098;2023-02-18T08:22:04;13.60;99.90
17998;DHT22;9124;48.144;17.098;2023-02-18T08:25:47;13.50;99.90
17998;DHT22;9124;48.144;17.098;2023-02-18T08:29:24;13.50;99.90
17998;DHT22;9124;48.144;17.098;2023-02-18T08:33:00;13.50;99.90
17998;DHT22;9124;48.144;17.098;2023-02-18T08:36:36;13.60;99.90
17998;DHT22;9124;48.144;17.098;2023-02-18T08:40:13;13.60;99.90
17998;DHT22;9124;48.144;17.098;2023-02-18T08:43:50;13.80;99.90
17998;DHT22;9124;48.144;17.098;2023-02-18T08:47:26;13.90;99.90
17998;DHT22;9124;48.144;17.098;2023-02-18T08:51:17;13.90;99.90
17998;DHT22;9124;48.144;17.098;2023-02-18T08:54:53;14.00;99.90
17998;DHT22;9124;48.144;17.098;2023-02-18T08:58:30;14.10;99.90
17998;DHT22;9124;48.144;17.098;2023-02-18T09:02:06;14.10;99.90
17998;DHT22;9124;48.144;17.098;2023-02-18T09:05:42;14.30;99.90
17998;DHT22;9124;48.144;17.098;2023-02-18T09:09:19;14.40;99.90
17998;DHT22;9124;48.144;17.098;2023-02-18T09:12:55;14.50;99.90
17998;DHT22;9124;48.144;17.098;2023-02-18T09:16:32;14.60;99.90
17998;DHT22;9124;48.144;17.098;2023-02-18T09:20:08;14.60;99.90
17998;DHT22;9124;48.144;17.098;2023-02-18T09:23:45;14.60;99.90
17998;DHT22;9124;48.144;17.098;2023-02-18T09:27:21;14.70;99.90
17998;DHT22;9124;48.144;17.098;2023-02-18T09:31:03;14.70;99.90
17998;DHT22;9124;48.144;17.098;2023-02-18T09:34:40;14.70;99.90
17998;DHT22;9124;48.144;17.098;2023-02-18T09:38:17;14.70;99.90
17998;DHT22;9124;48.144;17.098;2023-02-18T09:42:06;14.70;99.90
17998;DHT22;9124;48.144;17.098;2023-02-18T09:45:43;14.70;99.90
17998;DHT22;9124;48.144;17.098;2023-02-18T09:49:22;14.90;99.90
17998;DHT22;9124;48.144;17.098;2023-02-18T09:53:02;15.10;99.90
17998;DHT22;9124;48.144;17.098;2023-02-18T09:56:40;15.30;99.90
17998;DHT22;9124;48.144;17.098;2023-02-18T10:00:22;15.40;99.90
17998;DHT22;9124;48.144;17.098;2023-02-18T10:04:11;15.60;99.90
17998;DHT22;9124;48.144;17.098;2023-02-18T10:07:52;15.80;99.90
17998;DHT22;9124;48.144;17.098;2023-02-18T10:11:30;16.20;99.90
17998;DHT22;9124;48.144;17.098;2023-02-18T10:15:19;16.60;99.90
17998;DHT22;9124;48.144;17.098;2023-02-18T10:19:00;16.90;98.90
17998;DHT22;9124;48.144;17.098;2023-02-18T10:22:39;16.90;98.40
17998;DHT22;9124;48.144;17.098;2023-02-18T10:26:16;16.60;97.40
17998;DHT22;9124;48.144;17.098;2023-02-18T10:53:41;17.50;94.90
17998;DHT22;9124;48.144;17.098;2023-02-18T10:57:22;18.10;94.30
17998;DHT22;9124;48.144;17.098;2023-02-18T11:01:19;18.30;93.10
17998;DHT22;9124;48.144;17.098;2023-02-18T11:04:57;18.60;92.20
17998;DHT22;9124;48.144;17.098;2023-02-18T11:08:41;18.50;91.30
17998;DHT22;9124;48.144;17.098;2023-02-18T11:12:32;18.90;91.40
17998;DHT22;9124;48.144;17.098;2023-02-18T11:16:11;18.90;90.40
17998;DHT22;9124;48.144;17.098;2023-02-18T11:19:54;18.80;89.60
17998;DHT22;9124;48.144;17.098;2023-02-18T11:23:48;18.40;87.80
17998;DHT22;9124;48.144;17.098;2023-02-18T11:27:41;18.20;87.50
17998;DHT22;9124;48.144;17.098;2023-02-18T11:31:22;18.20;86.40
17998;DHT22;9124;48.144;17.098;2023-02-18T11:35:01;18.20;86.10
17998;DHT22;9124;48.144;17.098;2023-02-18T11:38:47;18.10;85.50
17998;DHT22;9124;48.144;17.098;2023-02-18T11:42:25;18.00;85.20
17998;DHT22;9124;48.144;17.098;2023-02-18T11:46:09;17.70;84.30
17998;DHT22;9124;48.144;17.098;2023-02-18T11:53:54;17.80;83.90
17998;DHT22;9124;48.144;17.098;2023-02-18T11:57:37;17.90;83.60
17998;DHT22;9124;48.144;17.098;2023-02-18T12:01:42;17.70;83.20
17998;DHT22;9124;48.144;17.098;2023-02-18T12:05:23;17.50;82.40
17998;DHT22;9124;48.144;17.098;2023-02-18T12:09:05;17.30;82.40
17998;DHT22;9124;48.144;17.098;2023-02-18T12:12:59;17.00;82.10
17998;DHT22;9124;48.144;17.098;2023-02-18T12:36:17;16.60;82.30
17998;DHT22;9124;48.144;17.098;2023-02-18T12:48:14;16.30;81.80
17998;DHT22;9124;48.144;17.098;2023-02-18T12:56:04;16.40;80.90
17998;DHT22;9124;48.144;17.098;2023-02-18T13:01:23;16.60;80.70
17998;DHT22;9124;48.144;17.098;2023-02-18T13:08:26;16.80;79.40
17998;DHT22;9124;48.144;17.098;2023-02-18T13:12:33;16.80;78.50
17998;DHT22;9124;48.144;17.098;2023-02-18T13:16:15;16.70;77.70
17998;DHT22;9124;48.144;17.098;2023-02-18T13:24:12;16.40;77.20
17998;DHT22;9124;48.144;17.098;2023-02-18T13:28:02;16.40;76.70
17998;DHT22;9124;48.144;17.098;2023-02-18T13:32:07;16.30;76.30
17998;DHT22;9124;48.144;17.098;2023-02-18T13:39:33;16.40;75.60
17998;DHT22;9124;48.144;17.098;2023-02-18T13:47:03;16.20;75.20
17998;DHT22;9124;48.144;17.098;2023-02-18T13:50:43;16.20;75.20
17998;DHT22;9124;48.144;17.098;2023-02-18T13:54:37;16.20;74.90
17998;DHT22;9124;48.144;17.098;2023-02-18T13:58:23;16.10;74.70
17998;DHT22;9124;48.144;17.098;2023-02-18T14:02:34;16.20;74.70
17998;DHT22;9124;48.144;17.098;2023-02-18T14:06:18;16.20;74.60
17998;DHT22;9124;48.144;17.098;2023-02-18T14:09:57;16.30;74.20
17998;DHT22;9124;48.144;17.098;2023-02-18T14:13:48;16.20;73.60
17998;DHT22;9124;48.144;17.098;2023-02-18T14:17:36;16.10;73.70
17998;DHT22;9124;48.144;17.098;2023-02-18T14:24:59;16.00;73.50
17998;DHT22;9124;48.144;17.098;2023-02-18T14:28:37;16.10;73.30
17998;DHT22;9124;48.144;17.098;2023-02-18T14:32:16;16.10;73.20
17998;DHT22;9124;48.144;17.098;2023-02-18T14:51:36;15.90;72.50
17998;DHT22;9124;48.144;17.098;2023-02-18T14:59:02;15.50;72.10
17998;DHT22;9124;48.144;17.098;2023-02-18T15:02:39;15.40;72.20
17998;DHT22;9124;48.144;17.098;2023-02-18T15:09:59;15.20;71.90
17998;DHT22;9124;48.144;17.098;2023-02-18T15:13:41;15.20;72.10
17998;DHT22;9124;48.144;17.098;2023-02-18T15:17:24;15.10;72.00
17998;DHT22;9124;48.144;17.098;2023-02-18T15:21:06;15.00;72.00
17998;DHT22;9124;48.144;17.098;2023-02-18T15:24:43;14.90;72.00
17998;DHT22;9124;48.144;17.098;2023-02-18T15:28:31;14.90;72.20
17998;DHT22;9124;48.144;17.098;2023-02-18T15:32:25;14.80;72.20
17998;DHT22;9124;48.144;17.098;2023-02-18T15:36:04;14.60;72.30
17998;DHT22;9124;48.144;17.098;2023-02-18T15:39:42;14.50;72.30
17998;DHT22;9124;48.144;17.098;2023-02-18T15:43:23;14.50;72.50
17998;DHT22;9124;48.144;17.098;2023-02-18T15:47:25;14.40;72.60
17998;DHT22;9124;48.144;17.098;2023-02-18T15:51:04;14.30;72.70
17998;DHT22;9124;48.144;17.098;2023-02-18T15:54:41;14.20;72.80
17998;DHT22;9124;48.144;17.098;2023-02-18T15:58:28;14.10;73.00
17998;DHT22;9124;48.144;17.098;2023-02-18T16:02:28;14.10;73.10
17998;DHT22;9124;48.144;17.098;2023-02-18T16:13:51;13.90;73.60
17998;DHT22;9124;48.144;17.098;2023-02-18T16:17:28;13.80;73.70
17998;DHT22;9124;48.144;17.098;2023-02-18T16:21:37;13.70;73.80
17998;DHT22;9124;48.144;17.098;2023-02-18T16:28:51;13.60;74.10
17998;DHT22;9124;48.144;17.098;2023-02-18T16:32:27;13.60;74.30
17998;DHT22;9124;48.144;17.098;2023-02-18T16:36:04;13.50;74.40
17998;DHT22;9124;48.144;17.098;2023-02-18T16:39:40;13.40;74.50
17998;DHT22;9124;48.144;17.098;2023-02-18T16:43:22;13.30;74.70
17998;DHT22;9124;48.144;17.098;2023-02-18T16:46:59;13.30;74.90
17998;DHT22;9124;48.144;17.098;2023-02-18T16:50:36;13.20;75.00
17998;DHT22;9124;48.144;17.098;2023-02-18T16:54:13;13.30;75.10
17998;DHT22;9124;48.144;17.098;2023-02-18T16:57:50;13.30;75.20
17998;DHT22;9124;48.144;17.098;2023-02-18T17:01:32;13.30;75.20
17998;DHT22;9124;48.144;17.098;2023-02-18T17:05:20;13.20;75.30
17998;DHT22;9124;48.144;17.098;2023-02-18T17:08:59;13.20;75.40
17998;DHT22;9124;48.144;17.098;2023-02-18T17:12:35;13.20;75.50
17998;DHT22;9124;48.144;17.098;2023-02-18T17:16:18;13.20;75.40
17998;DHT22;9124;48.144;17.098;2023-02-18T17:19:55;13.20;75.40
17998;DHT22;9124;48.144;17.098;2023-02-18T17:23:31;13.40;75.40
17998;DHT22;9124;48.144;17.098;2023-02-18T17:27:11;13.50;75.30
17998;DHT22;9124;48.144;17.098;2023-02-18T17:30:53;13.70;75.20
17998;DHT22;9124;48.144;17.098;2023-02-18T17:34:34;13.80;75.10
17998;DHT22;9124;48.144;17.098;2023-02-18T17:38:15;13.90;75.00
17998;DHT22;9124;48.144;17.098;2023-02-18T17:41:52;13.90;74.80
17998;DHT22;9124;48.144;17.098;2023-02-18T17:45:38;14.00;74.80
17998;DHT22;9124;48.144;17.098;2023-02-18T17:49:15;14.00;74.60
17998;DHT22;9124;48.144;17.098;2023-02-18T17:52:51;14.00;74.50
17998;DHT22;9124;48.144;17.098;2023-02-18T17:56:28;14.00;74.50
17998;DHT22;9124;48.144;17.098;2023-02-18T18:00:05;14.00;74.50
17998;DHT22;9124;48.144;17.098;2023-02-18T18:03:43;14.00;75.00
17998;DHT22;9124;48.144;17.098;2023-02-18T18:07:20;14.00;74.40
17998;DHT22;9124;48.144;17.098;2023-02-18T18:10:58;14.10;74.40
17998;DHT22;9124;48.144;17.098;2023-02-18T18:14:35;14.10;74.40
17998;DHT22;9124;48.144;17.098;2023-02-18T18:18:12;14.10;74.40
17998;DHT22;9124;48.144;17.098;2023-02-18T18:21:49;14.10;74.40
17998;DHT22;9124;48.144;17.098;2023-02-18T18:25:27;14.00;74.40
17998;DHT22;9124;48.144;17.098;2023-02-18T18:29:03;14.00;74.40
17998;DHT22;9124;48.144;17.098;2023-02-18T18:32:40;14.10;74.30
17998;DHT22;9124;48.144;17.098;2023-02-18T18:36:17;14.20;74.40
17998;DHT22;9124;48.144;17.098;2023-02-18T18:39:59;14.20;74.20
17998;DHT22;9124;48.144;17.098;2023-02-18T18:43:36;14.30;73.90
17998;DHT22;9124;48.144;17.098;2023-02-18T18:47:14;14.40;73.70
17998;DHT22;9124;48.144;17.098;2023-02-18T18:50:52;14.50;73.50
17998;DHT22;9124;48.144;17.098;2023-02-18T18:54:28;14.50;73.30
17998;DHT22;9124;48.144;17.098;2023-02-18T18:58:05;14.50;73.10
17998;DHT22;9124;48.144;17.098;2023-02-18T19:01:41;14.60;73.00
17998;DHT22;9124;48.144;17.098;2023-02-18T19:05:49;14.60;72.90
17998;DHT22;9124;48.144;17.098;2023-02-18T19:09:25;14.60;72.70
17998;DHT22;9124;48.144;17.098;2023-02-18T19:13:04;14.70;72.60
17998;DHT22;9124;48.144;17.098;2023-02-18T19:16:41;14.70;72.50
17998;DHT22;9124;48.144;17.098;2023-02-18T19:20:21;14.70;72.50
17998;DHT22;9124;48.144;17.098;2023-02-18T19:23:58;14.60;72.30
17998;DHT22;9124;48.144;17.098;2023-02-18T19:27:40;14.60;72.30
17998;DHT22;9124;48.144;17.098;2023-02-18T19:31:17;14.70;72.30
17998;DHT22;9124;48.144;17.098;2023-02-18T19:34:58;14.70;72.30
17998;DHT22;9124;48.144;17.098;2023-02-18T19:38:35;14.70;72.30
17998;DHT22;9124;48.144;17.098;2023-02-18T19:42:11;14.70;72.30
17998;DHT22;9124;48.144;17.098;2023-02-18T19:45:48;14.60;72.20
17998;DHT22;9124;48.144;17.098;2023-02-18T19:49:25;14.50;72.10
17998;DHT22;9124;48.144;17.098;2023-02-18T19:53:02;14.50;72.20
17998;DHT22;9124;48.144;17.098;2023-02-18T19:56:38;14.50;72.30
17998;DHT22;9124;48.144;17.098;2023-02-18T20:00:16;14.50;72.40
17998;DHT22;9124;48.144;17.098;2023-02-18T20:03:53;14.40;72.40
17998;DHT22;9124;48.144;17.098;2023-02-18T20:07:29;14.30;72.50
17998;DHT22;9124;48.144;17.098;2023-02-18T20:11:06;14.30;72.50
17998;DHT22;9124;48.144;17.098;2023-02-18T20:14:42;14.30;72.60
17998;DHT22;9124;48.144;17.098;2023-02-18T20:18:19;14.30;72.70
17998;DHT22;9124;48.144;17.098;2023-02-18T20:21:55;14.20;72.70
17998;DHT22;9124;48.144;17.098;2023-02-18T20:25:31;14.10;72.90
17998;DHT22;9124;48.144;17.098;2023-02-18T20:29:08;13.90;73.00
17998;DHT22;9124;48.144;17.098;2023-02-18T20:32:44;13.80;73.20
17998;DHT22;9124;48.144;17.098;2023-02-18T20:36:21;13.80;73.50
17998;DHT22;9124;48.144;17.098;2023-02-18T20:39:57;13.70;73.80
17998;DHT22;9124;48.144;17.098;2023-02-18T20:43:34;13.70;74.00
17998;DHT22;9124;48.144;17.098;2023-02-18T20:47:11;13.60;74.10
17998;DHT22;9124;48.144;17.098;2023-02-18T20:50:48;13.50;74.30
17998;DHT22;9124;48.144;17.098;2023-02-18T20:54:24;13.40;74.50
17998;DHT22;9124;48.144;17.098;2023-02-18T20:58:01;13.30;74.80
17998;DHT22;9124;48.144;17.098;2023-02-18T21:01:37;13.10;75.00
17998;DHT22;9124;48.144;17.098;2023-02-18T21:05:14;12.90;75.20
17998;DHT22;9124;48.144;17.098;2023-02-18T21:08:52;12.90;75.70
17998;DHT22;9124;48.144;17.098;2023-02-18T21:12:28;12.90;76.00
17998;DHT22;9124;48.144;17.098;2023-02-18T21:16:06;12.80;76.30
17998;DHT22;9124;48.144;17.098;2023-02-18T21:19:43;12.70;76.50
17998;DHT22;9124;48.144;17.098;2023-02-18T21:23:19;12.50;76.90
17998;DHT22;9124;48.144;17.098;2023-02-18T21:26:56;12.50;77.30
17998;DHT22;9124;48.144;17.098;2023-02-18T21:30:34;12.40;78.30
17998;DHT22;9124;48.144;17.098;2023-02-18T21:34:13;12.40;77.90
17998;DHT22;9124;48.144;17.098;2023-02-18T21:37:50;12.50;78.30
17998;DHT22;9124;48.144;17.098;2023-02-18T21:41:28;12.60;78.60
17998;DHT22;9124;48.144;17.098;2023-02-18T21:45:05;12.70;78.90
17998;DHT22;9124;48.144;17.098;2023-02-18T21:48:41;12.70;79.00
17998;DHT22;9124;48.144;17.098;2023-02-18T21:52:38;12.60;79.10
17998;DHT22;9124;48.144;17.098;2023-02-18T21:56:14;12.50;79.40
17998;DHT22;9124;48.144;17.098;2023-02-18T21:59:51;12.40;79.70
17998;DHT22;9124;48.144;17.098;2023-02-18T22:03:27;12.20;80.00
17998;DHT22;9124;48.144;17.098;2023-02-18T22:07:03;12.00;80.50
17998;DHT22;9124;48.144;17.098;2023-02-18T22:10:40;11.80;80.70
17998;DHT22;9124;48.144;17.098;2023-02-18T22:14:17;11.70;81.20
17998;DHT22;9124;48.144;17.098;2023-02-18T22:17:53;11.60;81.50
17998;DHT22;9124;48.144;17.098;2023-02-18T22:21:30;11.50;81.90
17998;DHT22;9124;48.144;17.098;2023-02-18T22:25:06;11.40;82.40
17998;DHT22;9124;48.144;17.098;2023-02-18T22:28:43;11.30;82.60
17998;DHT22;9124;48.144;17.098;2023-02-18T22:32:22;11.30;83.50
17998;DHT22;9124;48.144;17.098;2023-02-18T22:36:03;11.20;83.40
17998;DHT22;9124;48.144;17.098;2023-02-18T22:39:42;11.20;83.90
17998;DHT22;9124;48.144;17.098;2023-02-18T22:43:19;11.10;84.00
17998;DHT22;9124;48.144;17.098;2023-02-18T22:46:56;11.10;84.40
17998;DHT22;9124;48.144;17.098;2023-02-18T22:50:33;11.10;84.90
17998;DHT22;9124;48.144;17.098;2023-02-18T22:54:12;11.10;85.30
17998;DHT22;9124;48.144;17.098;2023-02-18T22:57:49;11.10;85.50
17998;DHT22;9124;48.144;17.098;2023-02-18T23:01:29;11.10;85.80
17998;DHT22;9124;48.144;17.098;2023-02-18T23:05:06;11.10;86.10
17998;DHT22;9124;48.144;17.098;2023-02-18T23:08:43;11.10;86.20
17998;DHT22;9124;48.144;17.098;2023-02-18T23:12:19;11.10;86.40
17998;DHT22;9124;48.144;17.098;2023-02-18T23:16:00;11.10;86.90
17998;DHT22;9124;48.144;17.098;2023-02-18T23:19:37;11.20;87.20
17998;DHT22;9124;48.144;17.098;2023-02-18T23:23:14;11.30;87.50
17998;DHT22;9124;48.144;17.098;2023-02-18T23:26:50;11.40;87.80
17998;DHT22;9124;48.144;17.098;2023-02-18T23:30:26;11.60;88.00
17998;DHT22;9124;48.144;17.098;2023-02-18T23:34:04;11.70;88.10
17998;DHT22;9124;48.144;17.098;2023-02-18T23:37:41;11.90;88.30
17998;DHT22;9124;48.144;17.098;2023-02-18T23:41:36;11.90;88.30
17998;DHT22;9124;48.144;17.098;2023-02-18T23:45:13;11.90;88.40
17998;DHT22;9124;48.144;17.098;2023-02-18T23:48:49;12.00;88.60
17998;DHT22;9124;48.144;17.098;2023-02-18T23:52:26;12.00;88.70
17998;DHT22;9124;48.144;17.098;2023-02-18T23:56:10;12.10;88.80
17998;DHT22;9124;48.144;17.098;2023-02-18T23:59:47;12.20;89.00
